createdAt,value
2022-09-12T00:00:41.561Z,18.10
2022-09-12T00:03:27.450Z,18.05
2022-09-12T00:06:22.875Z,18.10
2022-09-12T00:09:14.587Z,18.07
2022-09-12T00:12:00.779Z,18.11
2022-09-12T00:14:46.719Z,17.99
2022-09-12T00:17:35.230Z,17.96
2022-09-12T00:20:21.235Z,17.95
2022-09-12T00:23:07.073Z,17.98
2022-09-12T00:25:53.218Z,18.00
2022-09-12T00:28:40.653Z,17.93
2022-09-12T00:31:27.284Z,17.90
2022-09-12T00:34:13.800Z,17.94
2022-09-12T00:36:59.769Z,17.93
2022-09-12T00:39:45.719Z,17.94
2022-09-12T00:42:31.612Z,17.91
2022-09-12T00:45:30.588Z,17.87
2022-09-12T00:48:21.774Z,17.91
2022-09-12T00:51:08.637Z,17.89
2022-09-12T00:53:55.784Z,17.87
2022-09-12T00:56:43.765Z,17.86
2022-09-12T00:59:49.843Z,17.87
2022-09-12T01:02:36.136Z,17.78
2022-09-12T01:05:23.675Z,17.79
2022-09-12T01:08:09.651Z,17.85
2022-09-12T01:10:56.804Z,17.83
2022-09-12T01:13:44.301Z,17.73
2022-09-12T01:16:30.235Z,17.83
2022-09-12T01:19:46.632Z,17.67
2022-09-12T01:22:44.776Z,17.71
2022-09-12T01:25:30.945Z,17.78
2022-09-12T01:28:35.752Z,17.69
2022-09-12T01:31:47.636Z,17.67
2022-09-12T01:34:33.392Z,17.74
2022-09-12T01:37:28.573Z,17.72
2022-09-12T01:40:43.995Z,17.65
2022-09-12T01:43:36.769Z,17.68
2022-09-12T01:46:45.493Z,17.59
2022-09-12T01:49:52.921Z,17.57
2022-09-12T01:52:55.566Z,17.56
2022-09-12T01:55:49.981Z,17.49
2022-09-12T01:58:43.770Z,17.23
2022-09-12T02:01:34.684Z,17.49
2022-09-12T02:04:24.509Z,17.35
2022-09-12T02:07:18.632Z,17.33
2022-09-12T02:10:13.068Z,17.43
2022-09-12T02:13:04.244Z,17.41
2022-09-12T02:15:54.721Z,17.38
2022-09-12T02:18:45.826Z,17.36
2022-09-12T02:21:33.108Z,17.34
2022-09-12T02:24:21.316Z,17.35
2022-09-12T02:27:15.293Z,17.28
2022-09-12T02:30:01.627Z,17.17
2022-09-12T02:33:06.561Z,17.11
2022-09-12T02:36:26.920Z,16.97
2022-09-12T02:39:13.009Z,16.90
2022-09-12T02:42:01.027Z,16.82
2022-09-12T02:44:46.927Z,16.98
2022-09-12T02:47:38.068Z,16.80
2022-09-12T02:50:24.472Z,16.98
2022-09-12T02:53:11.333Z,17.02
2022-09-12T02:55:57.480Z,16.94
2022-09-12T02:58:44.058Z,16.96
2022-09-12T03:01:42.395Z,16.97
2022-09-12T03:05:16.076Z,16.76
2022-09-12T03:08:10.732Z,16.78
2022-09-12T03:11:15.989Z,16.88
2022-09-12T03:14:49.866Z,16.93
2022-09-12T03:17:52.450Z,17.00
2022-09-12T03:20:38.302Z,16.98
2022-09-12T03:23:25.653Z,16.96
2022-09-12T03:26:26.669Z,16.84
2022-09-12T03:29:13.517Z,16.99
2022-09-12T03:31:59.551Z,16.87
2022-09-12T03:34:45.704Z,16.85
2022-09-12T03:37:31.892Z,16.91
2022-09-12T03:40:18.282Z,16.89
2022-09-12T03:43:05.781Z,16.82
2022-09-12T03:45:53.487Z,16.72
2022-09-12T03:48:40.676Z,16.88
2022-09-12T03:51:26.587Z,16.74
2022-09-12T03:54:12.587Z,16.85
2022-09-12T03:56:58.546Z,16.83
2022-09-12T03:59:44.597Z,16.76
2022-09-12T04:02:30.696Z,16.85
2022-09-12T04:05:16.556Z,16.83
2022-09-12T04:08:02.792Z,16.88
2022-09-12T04:10:48.993Z,16.87
2022-09-12T04:13:35.541Z,16.20
2022-09-12T04:16:21.814Z,16.72
2022-09-12T04:19:07.891Z,16.75
2022-09-12T04:21:53.814Z,16.70
2022-09-12T04:24:39.692Z,16.79
2022-09-12T04:27:25.562Z,16.70
2022-09-12T04:30:11.930Z,16.82
2022-09-12T04:32:57.914Z,16.86
2022-09-12T04:35:45.361Z,16.78
2022-09-12T04:38:31.660Z,16.84
2022-09-12T04:41:22.183Z,16.77
2022-09-12T04:44:11.706Z,16.87
2022-09-12T04:46:57.787Z,16.84
2022-09-12T04:49:43.793Z,16.83
2022-09-12T04:52:29.847Z,16.85
2022-09-12T04:55:15.885Z,16.63
2022-09-12T04:58:02.480Z,16.74
2022-09-12T05:00:49.030Z,16.65
2022-09-12T05:03:35.188Z,16.73
2022-09-12T05:06:26.684Z,16.79
2022-09-12T05:09:14.203Z,16.82
2022-09-12T05:12:05.255Z,16.83
2022-09-12T05:14:51.917Z,16.83
2022-09-12T05:17:38.064Z,16.78
2022-09-12T05:20:24.030Z,16.88
2022-09-12T05:23:09.877Z,16.81
2022-09-12T05:25:57.988Z,16.89
2022-09-12T05:28:44.318Z,16.77
2022-09-12T05:31:30.068Z,16.85
2022-09-12T05:34:15.979Z,16.78
2022-09-12T05:37:02.001Z,16.74
2022-09-12T05:39:48.483Z,16.89
2022-09-12T05:42:34.358Z,16.97
2022-09-12T05:45:21.214Z,16.88
2022-09-12T05:48:07.156Z,17.00
2022-09-12T05:50:53.029Z,17.03
2022-09-12T05:53:40.326Z,17.08
2022-09-12T05:56:28.293Z,17.15
2022-09-12T05:59:20.049Z,17.10
2022-09-12T06:02:06.483Z,17.25
2022-09-12T06:04:52.354Z,17.24
2022-09-12T06:07:38.409Z,17.26
2022-09-12T06:10:26.354Z,17.33
2022-09-12T06:13:12.834Z,17.37
2022-09-12T06:16:16.790Z,17.34
2022-09-12T06:19:06.990Z,17.42
2022-09-12T06:21:53.429Z,17.44
2022-09-12T06:24:39.707Z,17.38
2022-09-12T06:27:25.469Z,17.52
2022-09-12T06:30:12.398Z,17.55
2022-09-12T06:32:58.141Z,17.59
2022-09-12T06:35:44.182Z,17.66
2022-09-12T06:38:31.289Z,17.47
2022-09-12T06:41:17.385Z,17.67
2022-09-12T06:44:04.058Z,17.80
2022-09-12T06:46:50.294Z,17.90
2022-09-12T06:49:36.450Z,18.01
2022-09-12T06:52:23.031Z,18.12
2022-09-12T06:55:09.320Z,18.17
2022-09-12T06:57:55.623Z,18.25
2022-09-12T07:00:42.086Z,18.19
2022-09-12T07:03:28.247Z,18.24
2022-09-12T07:06:17.397Z,18.44
2022-09-12T07:09:05.096Z,18.27
2022-09-12T07:11:51.158Z,18.45
2022-09-12T07:14:37.093Z,18.56
2022-09-12T07:17:22.979Z,18.60
2022-09-12T07:20:08.985Z,18.66
2022-09-12T07:23:00.093Z,18.68
2022-09-12T07:25:53.666Z,18.78
2022-09-12T07:28:40.127Z,18.89
2022-09-12T07:31:27.801Z,18.83
2022-09-12T07:34:14.022Z,18.87
2022-09-12T07:37:00.556Z,18.90
2022-09-12T07:39:46.625Z,18.91
2022-09-12T07:42:32.599Z,19.06
2022-09-12T07:45:18.482Z,19.08
2022-09-12T07:48:04.824Z,19.15
2022-09-12T07:51:01.612Z,19.17
2022-09-12T07:53:49.034Z,19.17
2022-09-12T07:56:38.855Z,19.25
2022-09-12T07:59:48.889Z,19.21
2022-09-12T08:02:31.877Z,19.19
2022-09-12T08:05:17.790Z,19.25
2022-09-12T08:08:03.946Z,19.30
2022-09-12T08:10:49.712Z,19.38
2022-09-12T08:13:37.398Z,19.40
2022-09-12T08:16:29.601Z,19.14
2022-09-12T08:19:15.634Z,19.33
2022-09-12T08:22:01.419Z,19.53
2022-09-12T08:24:47.176Z,19.55
2022-09-12T08:27:33.092Z,19.45
2022-09-12T08:30:18.917Z,19.53
2022-09-12T08:33:05.003Z,19.62
2022-09-12T08:35:50.901Z,19.36
2022-09-12T08:38:38.365Z,19.72
2022-09-12T08:41:39.130Z,19.72
2022-09-12T08:44:24.981Z,19.68
2022-09-12T08:47:19.978Z,19.79
2022-09-12T08:50:15.336Z,19.75
2022-09-12T08:53:17.296Z,19.74
2022-09-12T08:56:04.833Z,19.87
2022-09-12T08:58:51.093Z,19.87
2022-09-12T09:01:45.510Z,19.82
2022-09-12T09:04:56.800Z,19.92
2022-09-12T09:08:14.364Z,19.99
2022-09-12T09:11:14.270Z,19.76
2022-09-12T09:14:30.472Z,19.97
2022-09-12T09:17:35.362Z,20.05
2022-09-12T09:20:48.208Z,19.90
2022-09-12T09:23:45.028Z,19.97
2022-09-12T09:26:48.544Z,20.11
2022-09-12T09:29:41.356Z,20.08
2022-09-12T09:32:36.245Z,20.30
2022-09-12T09:35:44.914Z,20.26
2022-09-12T09:38:54.306Z,20.47
2022-09-12T09:42:10.270Z,20.47
2022-09-12T09:44:58.790Z,20.44
2022-09-12T09:47:58.177Z,20.49
2022-09-12T09:50:45.463Z,20.32
2022-09-12T09:54:10.364Z,20.52
2022-09-12T09:56:56.333Z,20.60
2022-09-12T09:59:42.275Z,20.72
2022-09-12T10:02:28.279Z,20.62
2022-09-12T10:05:17.341Z,20.70
2022-09-12T10:08:04.674Z,20.88
2022-09-12T10:11:23.013Z,20.56
2022-09-12T10:14:37.163Z,20.76
2022-09-12T10:17:34.182Z,20.90
2022-09-12T10:20:34.483Z,20.81
2022-09-12T10:23:37.292Z,20.75
2022-09-12T10:26:23.333Z,20.82
2022-09-12T10:29:17.230Z,20.81
2022-09-12T10:32:05.775Z,20.83
2022-09-12T10:34:55.308Z,20.81
2022-09-12T10:37:41.855Z,20.93
2022-09-12T10:40:32.677Z,21.10
2022-09-12T10:43:27.517Z,21.12
2022-09-12T10:46:16.664Z,21.25
2022-09-12T10:49:14.905Z,21.26
2022-09-12T10:52:17.552Z,21.35
2022-09-12T10:55:03.609Z,21.34
2022-09-12T10:58:12.311Z,21.11
2022-09-12T11:01:12.282Z,21.32
2022-09-12T11:04:35.440Z,21.29
2022-09-12T11:07:39.504Z,21.34
2022-09-12T11:10:31.954Z,21.21
2022-09-12T11:13:38.940Z,21.10
2022-09-12T11:16:42.995Z,21.25
2022-09-12T11:19:44.311Z,21.44
2022-09-12T11:22:49.089Z,21.40
2022-09-12T11:25:44.574Z,21.43
2022-09-12T11:28:45.330Z,21.61
2022-09-12T11:31:42.045Z,21.68
2022-09-12T11:35:03.006Z,21.29
2022-09-12T11:38:04.978Z,21.65
2022-09-12T11:41:00.478Z,21.35
2022-09-12T11:44:05.170Z,21.61
2022-09-12T11:46:52.211Z,21.51
2022-09-12T11:49:44.294Z,21.58
2022-09-12T11:52:35.736Z,21.54
2022-09-12T11:55:30.284Z,21.37
2022-09-12T12:03:07.582Z,21.65
2022-09-12T12:06:21.513Z,21.52
2022-09-12T12:09:07.639Z,21.67
2022-09-12T12:11:57.833Z,21.85
2022-09-12T12:14:47.054Z,21.67
2022-09-12T12:17:33.580Z,21.92
2022-09-12T12:20:19.801Z,21.97
2022-09-12T12:23:06.047Z,21.96
2022-09-12T12:25:57.371Z,22.04
2022-09-12T12:28:49.553Z,21.97
2022-09-12T12:32:10.445Z,22.00
2022-09-12T12:35:02.509Z,22.10
2022-09-12T12:37:52.080Z,22.16
2022-09-12T12:40:38.219Z,22.16
2022-09-12T12:43:32.254Z,22.27
2022-09-12T12:46:20.489Z,22.23
2022-09-12T12:49:30.152Z,21.92
2022-09-12T12:52:17.544Z,22.32
2022-09-12T12:55:05.224Z,22.27
2022-09-12T12:57:52.337Z,22.24
2022-09-12T13:00:40.173Z,22.31
2022-09-12T13:03:31.089Z,22.41
2022-09-12T13:06:36.207Z,22.27
2022-09-12T13:09:48.165Z,22.17
2022-09-12T13:12:36.777Z,22.44
2022-09-12T13:15:42.894Z,22.26
2022-09-12T13:18:49.288Z,22.33
2022-09-12T13:21:35.535Z,22.53
2022-09-12T13:24:22.961Z,22.57
2022-09-12T13:27:24.844Z,22.58
2022-09-12T13:30:15.577Z,22.53
2022-09-12T13:33:48.710Z,22.47
2022-09-12T13:37:07.989Z,22.59
2022-09-12T13:40:33.469Z,22.53
2022-09-12T13:43:27.224Z,22.68
2022-09-12T13:46:17.683Z,22.74
2022-09-12T13:49:19.078Z,22.90
2022-09-12T13:52:08.846Z,23.05
2022-09-12T13:54:56.939Z,23.03
2022-09-12T13:57:43.161Z,23.43
2022-09-12T14:00:32.224Z,23.65
2022-09-12T14:04:10.117Z,23.75
2022-09-12T14:06:57.026Z,23.85
2022-09-12T14:09:45.191Z,23.93
2022-09-12T14:12:42.750Z,23.86
2022-09-12T14:15:33.712Z,23.99
2022-09-12T14:18:26.300Z,24.00
2022-09-12T14:21:27.220Z,24.14
2022-09-12T14:24:14.848Z,24.09
2022-09-12T14:27:01.192Z,24.17
2022-09-12T14:29:47.519Z,24.05
2022-09-12T14:32:33.596Z,24.11
2022-09-12T14:35:20.417Z,24.11
2022-09-12T14:38:08.763Z,24.27
2022-09-12T14:41:03.061Z,24.34
2022-09-12T14:43:52.980Z,24.57
2022-09-12T14:46:40.248Z,24.63
2022-09-12T14:49:35.256Z,24.70
2022-09-12T14:52:30.157Z,24.76
2022-09-12T14:55:16.257Z,24.84
2022-09-12T14:58:15.600Z,24.99
2022-09-12T15:01:22.970Z,24.92
2022-09-12T15:04:08.803Z,25.21
2022-09-12T15:06:54.687Z,25.29
2022-09-12T15:09:45.595Z,25.29
2022-09-12T15:12:32.977Z,24.96
2022-09-12T15:15:20.954Z,25.12
2022-09-12T15:18:07.385Z,24.88
2022-09-12T15:20:58.804Z,24.94
2022-09-12T15:23:49.994Z,24.85
2022-09-12T15:26:36.503Z,24.98
2022-09-12T15:29:22.437Z,25.04
2022-09-12T15:32:15.090Z,25.00
2022-09-12T15:35:00.937Z,25.13
2022-09-12T15:37:47.330Z,25.16
2022-09-12T15:40:33.477Z,25.23
2022-09-12T15:43:20.897Z,25.31
2022-09-12T15:46:07.221Z,25.30
2022-09-12T15:48:53.281Z,25.18
2022-09-12T15:51:40.070Z,25.03
2022-09-12T15:54:26.713Z,24.97
2022-09-12T15:57:12.514Z,24.74
2022-09-12T15:59:58.624Z,24.51
2022-09-12T16:02:46.279Z,24.39
2022-09-12T16:05:33.385Z,24.31
2022-09-12T16:08:19.563Z,24.17
2022-09-12T16:11:08.776Z,23.98
2022-09-12T16:13:56.775Z,23.86
2022-09-12T16:16:43.505Z,23.62
2022-09-12T16:19:29.413Z,23.53
2022-09-12T16:22:15.288Z,23.44
2022-09-12T16:25:01.332Z,23.25
2022-09-12T16:27:47.205Z,23.28
2022-09-12T16:30:34.023Z,23.18
2022-09-12T16:33:20.019Z,23.14
2022-09-12T16:36:08.619Z,23.02
2022-09-12T16:38:54.614Z,22.97
2022-09-12T16:41:42.763Z,22.90
2022-09-12T16:44:28.901Z,22.85
2022-09-12T16:47:15.278Z,22.75
2022-09-12T16:50:01.266Z,22.68
2022-09-12T16:52:47.089Z,22.61
2022-09-12T16:55:33.006Z,22.53
2022-09-12T16:58:19.040Z,22.47
2022-09-12T17:01:19.672Z,22.38
2022-09-12T17:04:06.838Z,22.33
2022-09-12T17:06:52.774Z,22.31
2022-09-12T17:09:38.731Z,22.24
2022-09-12T17:12:24.739Z,22.18
2022-09-12T17:15:10.797Z,22.11
2022-09-12T17:17:57.228Z,22.07
2022-09-12T17:20:43.333Z,22.02
2022-09-12T17:23:29.868Z,21.93
2022-09-12T17:26:15.856Z,21.88
2022-09-12T17:29:02.261Z,21.82
2022-09-12T17:31:48.912Z,21.83
2022-09-12T17:34:34.848Z,21.75
2022-09-12T17:37:21.832Z,21.60
2022-09-12T17:40:09.574Z,21.64
2022-09-12T17:42:56.656Z,21.56
2022-09-12T17:45:42.991Z,21.55
2022-09-12T17:48:29.222Z,21.44
2022-09-12T17:51:15.286Z,21.38
2022-09-12T17:54:04.741Z,21.34
2022-09-12T17:56:51.950Z,21.30
2022-09-12T17:59:37.825Z,21.22
2022-09-12T18:02:23.928Z,21.21
2022-09-12T18:05:10.255Z,21.18
2022-09-12T18:07:56.311Z,21.12
2022-09-12T18:10:42.311Z,21.00
2022-09-12T18:13:28.318Z,21.03
2022-09-12T18:16:14.663Z,20.97
2022-09-12T18:19:01.497Z,20.93
2022-09-12T18:21:47.528Z,20.87
2022-09-12T18:24:33.922Z,20.80
2022-09-12T18:27:20.022Z,20.74
2022-09-12T18:30:22.238Z,20.70
2022-09-12T18:33:08.425Z,20.55
2022-09-12T18:35:54.540Z,20.56
2022-09-12T18:38:41.466Z,20.48
2022-09-12T18:41:28.997Z,20.39
2022-09-12T18:44:15.304Z,20.35
2022-09-12T18:47:02.294Z,20.27
2022-09-12T18:49:48.596Z,20.19
2022-09-12T18:52:34.553Z,20.01
2022-09-12T18:55:20.928Z,19.99
2022-09-12T18:58:06.756Z,19.97
2022-09-12T19:00:52.697Z,19.92
2022-09-12T19:03:38.604Z,19.83
2022-09-12T19:06:26.844Z,19.81
2022-09-12T19:09:15.296Z,19.71
2022-09-12T19:12:01.586Z,19.65
2022-09-12T19:14:47.814Z,19.57
2022-09-12T19:17:33.733Z,19.45
2022-09-12T19:20:19.552Z,19.30
2022-09-12T19:23:05.528Z,19.24
2022-09-12T19:25:59.096Z,19.23
2022-09-12T19:28:45.477Z,19.20
2022-09-12T19:31:32.155Z,19.14
2022-09-12T19:34:18.392Z,19.05
2022-09-12T19:37:04.577Z,18.97
2022-09-12T19:39:50.593Z,18.83
2022-09-12T19:42:36.383Z,18.87
2022-09-12T19:45:22.133Z,18.86
2022-09-12T19:48:08.239Z,18.79
2022-09-12T19:51:01.579Z,18.74
2022-09-12T19:53:48.566Z,18.67
2022-09-12T19:56:34.385Z,18.67
2022-09-12T19:59:20.405Z,18.65
2022-09-12T20:02:06.629Z,18.58
2022-09-12T20:04:52.395Z,18.54
2022-09-12T20:07:38.450Z,18.47
2022-09-12T20:10:24.587Z,18.40
2022-09-12T20:13:10.665Z,18.39
2022-09-12T20:15:56.684Z,18.29
2022-09-12T20:18:43.636Z,18.20
2022-09-12T20:21:38.612Z,18.15
2022-09-12T20:24:32.926Z,18.04
2022-09-12T20:27:19.616Z,18.01
2022-09-12T20:30:06.104Z,17.94
2022-09-12T20:32:51.980Z,17.90
2022-09-12T20:35:38.014Z,17.90
2022-09-12T20:38:24.210Z,17.81
2022-09-12T20:41:11.625Z,17.79
2022-09-12T20:43:57.884Z,17.81
2022-09-12T20:46:43.925Z,17.68
2022-09-12T20:49:30.167Z,17.73
2022-09-12T20:52:16.070Z,17.75
2022-09-12T20:55:02.086Z,17.72
2022-09-12T20:57:50.117Z,17.63
2022-09-12T21:00:38.462Z,17.64
2022-09-12T21:03:25.548Z,17.63
2022-09-12T21:06:17.011Z,17.53
2022-09-12T21:09:03.046Z,17.55
2022-09-12T21:11:49.356Z,17.50
2022-09-12T21:14:35.109Z,17.49
2022-09-12T21:17:21.204Z,17.47
2022-09-12T21:20:11.256Z,17.41
2022-09-12T21:22:57.757Z,17.37
2022-09-12T21:25:52.060Z,17.32
2022-09-12T21:28:38.529Z,17.30
2022-09-12T21:31:25.650Z,17.30
2022-09-12T21:34:12.114Z,17.24
2022-09-12T21:36:58.401Z,17.18
2022-09-12T21:39:44.825Z,17.18
2022-09-12T21:42:31.780Z,17.11
2022-09-12T21:45:18.460Z,17.07
2022-09-12T21:48:04.948Z,17.08
2022-09-12T21:50:51.527Z,17.00
2022-09-12T21:53:37.741Z,17.03
2022-09-12T21:56:23.961Z,17.00
2022-09-12T21:59:09.872Z,17.01
2022-09-12T22:01:55.893Z,16.93
2022-09-12T22:04:41.921Z,16.98
2022-09-12T22:07:28.368Z,16.93
2022-09-12T22:10:15.289Z,16.81
2022-09-12T22:13:01.764Z,16.89
2022-09-12T22:15:51.990Z,16.85
2022-09-12T22:18:38.548Z,16.87
2022-09-12T22:21:24.843Z,16.82
2022-09-12T22:24:29.154Z,16.84
2022-09-12T22:27:15.297Z,16.77
2022-09-12T22:30:01.477Z,16.79
2022-09-12T22:32:49.830Z,16.75
2022-09-12T22:35:36.293Z,16.75
2022-09-12T22:38:22.310Z,16.69
2022-09-12T22:41:11.177Z,16.71
2022-09-12T22:43:58.173Z,16.64
2022-09-12T22:46:45.082Z,16.61
2022-09-12T22:49:31.211Z,16.50
2022-09-12T22:52:17.184Z,16.45
2022-09-12T22:55:03.481Z,16.44
2022-09-12T22:57:49.776Z,16.50
2022-09-12T23:00:35.670Z,16.46
2022-09-12T23:03:21.708Z,16.46
2022-09-12T23:06:08.136Z,16.44
2022-09-12T23:08:54.419Z,16.43
2022-09-12T23:11:40.771Z,16.34
2022-09-12T23:14:26.485Z,16.40
2022-09-12T23:17:13.029Z,16.37
2022-09-12T23:19:59.150Z,16.38
2022-09-12T23:22:44.994Z,16.38
2022-09-12T23:25:31.019Z,16.29
2022-09-12T23:28:16.547Z,16.33
2022-09-12T23:31:03.069Z,16.32
2022-09-12T23:33:50.086Z,16.15
2022-09-12T23:36:36.416Z,16.25
2022-09-12T23:39:23.442Z,16.24
2022-09-12T23:42:09.341Z,16.24
2022-09-12T23:44:55.272Z,16.20
2022-09-12T23:47:41.503Z,16.19
2022-09-12T23:50:27.873Z,16.15
2022-09-12T23:53:15.022Z,16.04
2022-09-12T23:56:01.754Z,16.01
2022-09-12T23:58:48.314Z,16.06
